<?xml version="1.0" encoding="UTF-8" standalone="no" ?>
<gpx xmlns="http://www.topografix.com/GPX/1/1" xmlns:xsi="http://www.w3.org/2001/XMLSchema-instance" xsi:schemaLocation="http://www.topografix.com/GPX/1/1 http://www.topografix.com/GPX/1/1/gpx.xsd" version="1.1" creator="VisuGPX - https://www.visugpx.com">
  <metadata>
    <name>Le Rizoud</name>
    <desc><![CDATA[Tracé du Rizoud au Col de la Croix du Ban (69)]]></desc>
  </metadata>
  <trk>
    <name><![CDATA[2021-03-24 10-41-50]]></name>
    <extensions>
      <line xmlns="http://www.topografix.com/GPX/gpx_style/0/2">
        <color>0000FF</color>
        <width>4</width>
      </line>
    </extensions>
    <trkseg>
      <trkpt lat="45.77779" lon="4.6401">
        <ele>596.15</ele>
        <time>2021-03-24T09:34:30Z</time>
      </trkpt>
      <trkpt lat="45.77779" lon="4.6401">
        <ele>596.15</ele>
        <time>2021-03-24T09:34:30Z</time>
      </trkpt>
      <trkpt lat="45.77779" lon="4.6401">
        <ele>596.15</ele>
        <time>2021-03-24T09:34:31Z</time>
      </trkpt>
      <trkpt lat="45.77779" lon="4.64007">
        <ele>596.64</ele>
        <time>2021-03-24T09:34:36Z</time>
      </trkpt>
      <trkpt lat="45.77774" lon="4.64004">
        <ele>596.15</ele>
        <time>2021-03-24T09:34:40Z</time>
      </trkpt>
      <trkpt lat="45.77771" lon="4.64004">
        <ele>595.67</ele>
        <time>2021-03-24T09:34:41Z</time>
      </trkpt>
      <trkpt lat="45.77756" lon="4.64001">
        <ele>594.71</ele>
        <time>2021-03-24T09:34:46Z</time>
      </trkpt>
      <trkpt lat="45.77754" lon="4.64002">
        <ele>594.71</ele>
        <time>2021-03-24T09:34:47Z</time>
      </trkpt>
      <trkpt lat="45.77753" lon="4.64005">
        <ele>595.67</ele>
        <time>2021-03-24T09:34:49Z</time>
      </trkpt>
      <trkpt lat="45.77753" lon="4.64007">
        <ele>595.67</ele>
        <time>2021-03-24T09:34:50Z</time>
      </trkpt>
      <trkpt lat="45.77752" lon="4.64008">
        <ele>595.19</ele>
        <time>2021-03-24T09:34:51Z</time>
      </trkpt>
      <trkpt lat="45.77752" lon="4.6401">
        <ele>594.71</ele>
        <time>2021-03-24T09:34:55Z</time>
      </trkpt>
      <trkpt lat="45.77747" lon="4.64022">
        <ele>592.79</ele>
        <time>2021-03-24T09:35:02Z</time>
      </trkpt>
      <trkpt lat="45.77745" lon="4.64024">
        <ele>592.31</ele>
        <time>2021-03-24T09:35:03Z</time>
      </trkpt>
      <trkpt lat="45.77741" lon="4.64024">
        <ele>592.31</ele>
        <time>2021-03-24T09:35:04Z</time>
      </trkpt>
      <trkpt lat="45.77738" lon="4.64023">
        <ele>592.31</ele>
        <time>2021-03-24T09:35:05Z</time>
      </trkpt>
      <trkpt lat="45.77735" lon="4.64024">
        <ele>592.31</ele>
        <time>2021-03-24T09:35:06Z</time>
      </trkpt>
      <trkpt lat="45.77733" lon="4.64025">
        <ele>592.31</ele>
        <time>2021-03-24T09:35:07Z</time>
      </trkpt>
      <trkpt lat="45.77729" lon="4.64027">
        <ele>588.95</ele>
        <time>2021-03-24T09:35:12Z</time>
      </trkpt>
      <trkpt lat="45.7772" lon="4.64031">
        <ele>584.62</ele>
        <time>2021-03-24T09:35:24Z</time>
      </trkpt>
      <trkpt lat="45.77703" lon="4.64045">
        <ele>584.62</ele>
        <time>2021-03-24T09:35:31Z</time>
      </trkpt>
      <trkpt lat="45.77698" lon="4.64048">
        <ele>584.14</ele>
        <time>2021-03-24T09:35:32Z</time>
      </trkpt>
      <trkpt lat="45.77682" lon="4.64057">
        <ele>582.7</ele>
        <time>2021-03-24T09:35:35Z</time>
      </trkpt>
      <trkpt lat="45.77676" lon="4.64061">
        <ele>582.22</ele>
        <time>2021-03-24T09:35:36Z</time>
      </trkpt>
      <trkpt lat="45.7767" lon="4.64064">
        <ele>581.25</ele>
        <time>2021-03-24T09:35:37Z</time>
      </trkpt>
      <trkpt lat="45.7766" lon="4.64066">
        <ele>577.89</ele>
        <time>2021-03-24T09:35:39Z</time>
      </trkpt>
      <trkpt lat="45.77655" lon="4.64067">
        <ele>577.89</ele>
        <time>2021-03-24T09:35:40Z</time>
      </trkpt>
      <trkpt lat="45.77644" lon="4.64069">
        <ele>574.04</ele>
        <time>2021-03-24T09:35:42Z</time>
      </trkpt>
      <trkpt lat="45.77638" lon="4.64072">
        <ele>572.6</ele>
        <time>2021-03-24T09:35:43Z</time>
      </trkpt>
      <trkpt lat="45.77627" lon="4.64076">
        <ele>569.24</ele>
        <time>2021-03-24T09:35:45Z</time>
      </trkpt>
      <trkpt lat="45.77621" lon="4.64077">
        <ele>568.76</ele>
        <time>2021-03-24T09:35:46Z</time>
      </trkpt>
      <trkpt lat="45.77616" lon="4.64075">
        <ele>568.28</ele>
        <time>2021-03-24T09:35:47Z</time>
      </trkpt>
      <trkpt lat="45.77606" lon="4.6407">
        <ele>567.32</ele>
        <time>2021-03-24T09:35:49Z</time>
      </trkpt>
      <trkpt lat="45.77601" lon="4.64065">
        <ele>566.83</ele>
        <time>2021-03-24T09:35:50Z</time>
      </trkpt>
      <trkpt lat="45.77586" lon="4.64051">
        <ele>563.95</ele>
        <time>2021-03-24T09:35:53Z</time>
      </trkpt>
      <trkpt lat="45.7758" lon="4.64049">
        <ele>563.47</ele>
        <time>2021-03-24T09:35:54Z</time>
      </trkpt>
      <trkpt lat="45.77575" lon="4.64049">
        <ele>562.51</ele>
        <time>2021-03-24T09:35:55Z</time>
      </trkpt>
      <trkpt lat="45.77569" lon="4.64048">
        <ele>562.03</ele>
        <time>2021-03-24T09:35:56Z</time>
      </trkpt>
      <trkpt lat="45.77563" lon="4.64048">
        <ele>561.55</ele>
        <time>2021-03-24T09:35:57Z</time>
      </trkpt>
      <trkpt lat="45.77553" lon="4.64049">
        <ele>560.11</ele>
        <time>2021-03-24T09:35:59Z</time>
      </trkpt>
      <trkpt lat="45.77546" lon="4.64051">
        <ele>559.62</ele>
        <time>2021-03-24T09:36:00Z</time>
      </trkpt>
      <trkpt lat="45.77538" lon="4.64053">
        <ele>559.62</ele>
        <time>2021-03-24T09:36:01Z</time>
      </trkpt>
      <trkpt lat="45.77532" lon="4.64057">
        <ele>559.14</ele>
        <time>2021-03-24T09:36:02Z</time>
      </trkpt>
      <trkpt lat="45.77507" lon="4.64083">
        <ele>558.18</ele>
        <time>2021-03-24T09:36:06Z</time>
      </trkpt>
      <trkpt lat="45.7749" lon="4.64109">
        <ele>557.22</ele>
        <time>2021-03-24T09:36:09Z</time>
      </trkpt>
      <trkpt lat="45.77486" lon="4.64118">
        <ele>556.74</ele>
        <time>2021-03-24T09:36:10Z</time>
      </trkpt>
      <trkpt lat="45.77484" lon="4.64125">
        <ele>556.26</ele>
        <time>2021-03-24T09:36:11Z</time>
      </trkpt>
      <trkpt lat="45.77485" lon="4.64131">
        <ele>552.41</ele>
        <time>2021-03-24T09:36:15Z</time>
      </trkpt>
      <trkpt lat="45.77486" lon="4.64133">
        <ele>551.93</ele>
        <time>2021-03-24T09:36:16Z</time>
      </trkpt>
      <trkpt lat="45.77484" lon="4.64158">
        <ele>550.01</ele>
        <time>2021-03-24T09:36:22Z</time>
      </trkpt>
      <trkpt lat="45.77484" lon="4.64164">
        <ele>550.01</ele>
        <time>2021-03-24T09:36:23Z</time>
      </trkpt>
      <trkpt lat="45.77484" lon="4.6417">
        <ele>550.01</ele>
        <time>2021-03-24T09:36:24Z</time>
      </trkpt>
      <trkpt lat="45.77485" lon="4.64187">
        <ele>549.53</ele>
        <time>2021-03-24T09:36:27Z</time>
      </trkpt>
      <trkpt lat="45.77485" lon="4.64192">
        <ele>549.05</ele>
        <time>2021-03-24T09:36:28Z</time>
      </trkpt>
      <trkpt lat="45.77486" lon="4.64196">
        <ele>549.05</ele>
        <time>2021-03-24T09:36:29Z</time>
      </trkpt>
      <trkpt lat="45.77485" lon="4.64201">
        <ele>548.57</ele>
        <time>2021-03-24T09:36:30Z</time>
      </trkpt>
      <trkpt lat="45.77485" lon="4.64207">
        <ele>547.61</ele>
        <time>2021-03-24T09:36:31Z</time>
      </trkpt>
      <trkpt lat="45.77486" lon="4.64213">
        <ele>546.65</ele>
        <time>2021-03-24T09:36:32Z</time>
      </trkpt>
      <trkpt lat="45.77484" lon="4.64219">
        <ele>546.17</ele>
        <time>2021-03-24T09:36:33Z</time>
      </trkpt>
      <trkpt lat="45.77482" lon="4.6424">
        <ele>542.8</ele>
        <time>2021-03-24T09:36:37Z</time>
      </trkpt>
      <trkpt lat="45.77472" lon="4.6427">
        <ele>539.44</ele>
        <time>2021-03-24T09:36:43Z</time>
      </trkpt>
      <trkpt lat="45.77466" lon="4.64289">
        <ele>535.59</ele>
        <time>2021-03-24T09:36:48Z</time>
      </trkpt>
      <trkpt lat="45.77457" lon="4.64304">
        <ele>532.71</ele>
        <time>2021-03-24T09:36:52Z</time>
      </trkpt>
      <trkpt lat="45.77444" lon="4.64323">
        <ele>530.3</ele>
        <time>2021-03-24T09:36:56Z</time>
      </trkpt>
      <trkpt lat="45.77441" lon="4.64329">
        <ele>529.34</ele>
        <time>2021-03-24T09:36:57Z</time>
      </trkpt>
      <trkpt lat="45.77439" lon="4.64335">
        <ele>528.86</ele>
        <time>2021-03-24T09:36:58Z</time>
      </trkpt>
      <trkpt lat="45.77432" lon="4.64352">
        <ele>526.46</ele>
        <time>2021-03-24T09:37:01Z</time>
      </trkpt>
      <trkpt lat="45.7743" lon="4.6436">
        <ele>525.98</ele>
        <time>2021-03-24T09:37:02Z</time>
      </trkpt>
      <trkpt lat="45.77428" lon="4.64368">
        <ele>525.98</ele>
        <time>2021-03-24T09:37:03Z</time>
      </trkpt>
      <trkpt lat="45.77425" lon="4.64377">
        <ele>525.5</ele>
        <time>2021-03-24T09:37:04Z</time>
      </trkpt>
      <trkpt lat="45.77422" lon="4.64385">
        <ele>525.02</ele>
        <time>2021-03-24T09:37:05Z</time>
      </trkpt>
      <trkpt lat="45.77413" lon="4.6441">
        <ele>524.54</ele>
        <time>2021-03-24T09:37:08Z</time>
      </trkpt>
      <trkpt lat="45.77409" lon="4.64417">
        <ele>524.06</ele>
        <time>2021-03-24T09:37:09Z</time>
      </trkpt>
      <trkpt lat="45.77388" lon="4.64453">
        <ele>520.69</ele>
        <time>2021-03-24T09:37:15Z</time>
      </trkpt>
      <trkpt lat="45.77379" lon="4.64477">
        <ele>517.33</ele>
        <time>2021-03-24T09:37:20Z</time>
      </trkpt>
      <trkpt lat="45.77371" lon="4.64503">
        <ele>514.44</ele>
        <time>2021-03-24T09:37:25Z</time>
      </trkpt>
      <trkpt lat="45.77367" lon="4.64506">
        <ele>513.96</ele>
        <time>2021-03-24T09:37:26Z</time>
      </trkpt>
      <trkpt lat="45.77363" lon="4.64509">
        <ele>513</ele>
        <time>2021-03-24T09:37:27Z</time>
      </trkpt>
      <trkpt lat="45.77359" lon="4.64513">
        <ele>512.52</ele>
        <time>2021-03-24T09:37:28Z</time>
      </trkpt>
      <trkpt lat="45.77355" lon="4.64516">
        <ele>512.04</ele>
        <time>2021-03-24T09:37:29Z</time>
      </trkpt>
      <trkpt lat="45.77352" lon="4.64517">
        <ele>511.08</ele>
        <time>2021-03-24T09:37:30Z</time>
      </trkpt>
      <trkpt lat="45.77349" lon="4.64519">
        <ele>510.12</ele>
        <time>2021-03-24T09:37:31Z</time>
      </trkpt>
      <trkpt lat="45.77347" lon="4.64521">
        <ele>509.16</ele>
        <time>2021-03-24T09:37:32Z</time>
      </trkpt>
      <trkpt lat="45.77345" lon="4.64524">
        <ele>508.19</ele>
        <time>2021-03-24T09:37:33Z</time>
      </trkpt>
      <trkpt lat="45.77343" lon="4.64525">
        <ele>507.71</ele>
        <time>2021-03-24T09:37:34Z</time>
      </trkpt>
      <trkpt lat="45.7734" lon="4.64525">
        <ele>507.23</ele>
        <time>2021-03-24T09:37:35Z</time>
      </trkpt>
      <trkpt lat="45.77337" lon="4.64524">
        <ele>505.79</ele>
        <time>2021-03-24T09:37:36Z</time>
      </trkpt>
      <trkpt lat="45.77334" lon="4.64524">
        <ele>505.31</ele>
        <time>2021-03-24T09:37:37Z</time>
      </trkpt>
      <trkpt lat="45.77331" lon="4.64525">
        <ele>504.83</ele>
        <time>2021-03-24T09:37:38Z</time>
      </trkpt>
      <trkpt lat="45.77321" lon="4.64527">
        <ele>503.39</ele>
        <time>2021-03-24T09:37:41Z</time>
      </trkpt>
      <trkpt lat="45.77315" lon="4.64527">
        <ele>502.91</ele>
        <time>2021-03-24T09:37:43Z</time>
      </trkpt>
      <trkpt lat="45.77312" lon="4.64526">
        <ele>502.43</ele>
        <time>2021-03-24T09:37:44Z</time>
      </trkpt>
      <trkpt lat="45.7731" lon="4.64525">
        <ele>502.43</ele>
        <time>2021-03-24T09:37:45Z</time>
      </trkpt>
      <trkpt lat="45.77308" lon="4.64525">
        <ele>501.95</ele>
        <time>2021-03-24T09:37:46Z</time>
      </trkpt>
      <trkpt lat="45.77305" lon="4.64525">
        <ele>501.95</ele>
        <time>2021-03-24T09:37:47Z</time>
      </trkpt>
      <trkpt lat="45.77303" lon="4.64525">
        <ele>501.95</ele>
        <time>2021-03-24T09:37:48Z</time>
      </trkpt>
      <trkpt lat="45.773" lon="4.64525">
        <ele>501.46</ele>
        <time>2021-03-24T09:37:49Z</time>
      </trkpt>
      <trkpt lat="45.77298" lon="4.64524">
        <ele>501.46</ele>
        <time>2021-03-24T09:37:50Z</time>
      </trkpt>
      <trkpt lat="45.77297" lon="4.64523">
        <ele>501.46</ele>
        <time>2021-03-24T09:37:51Z</time>
      </trkpt>
      <trkpt lat="45.77284" lon="4.64515">
        <ele>502.43</ele>
        <time>2021-03-24T09:37:58Z</time>
      </trkpt>
      <trkpt lat="45.77274" lon="4.64506">
        <ele>503.39</ele>
        <time>2021-03-24T09:38:04Z</time>
      </trkpt>
      <trkpt lat="45.77261" lon="4.64506">
        <ele>503.39</ele>
        <time>2021-03-24T09:38:09Z</time>
      </trkpt>
      <trkpt lat="45.7726" lon="4.64509">
        <ele>503.39</ele>
        <time>2021-03-24T09:38:10Z</time>
      </trkpt>
      <trkpt lat="45.7726" lon="4.64513">
        <ele>503.39</ele>
        <time>2021-03-24T09:38:11Z</time>
      </trkpt>
      <trkpt lat="45.77257" lon="4.64549">
        <ele>500.02</ele>
        <time>2021-03-24T09:38:20Z</time>
      </trkpt>
      <trkpt lat="45.77257" lon="4.64564">
        <ele>500.02</ele>
        <time>2021-03-24T09:38:24Z</time>
      </trkpt>
      <trkpt lat="45.77255" lon="4.6458">
        <ele>500.02</ele>
        <time>2021-03-24T09:38:27Z</time>
      </trkpt>
      <trkpt lat="45.77261" lon="4.64604">
        <ele>501.95</ele>
        <time>2021-03-24T09:38:35Z</time>
      </trkpt>
      <trkpt lat="45.77259" lon="4.64656">
        <ele>501.46</ele>
        <time>2021-03-24T09:38:45Z</time>
      </trkpt>
      <trkpt lat="45.7725" lon="4.64688">
        <ele>501.46</ele>
        <time>2021-03-24T09:38:55Z</time>
      </trkpt>
      <trkpt lat="45.77245" lon="4.64703">
        <ele>501.95</ele>
        <time>2021-03-24T09:39:00Z</time>
      </trkpt>
      <trkpt lat="45.77229" lon="4.64727">
        <ele>501.95</ele>
        <time>2021-03-24T09:39:05Z</time>
      </trkpt>
      <trkpt lat="45.77213" lon="4.64743">
        <ele>501.46</ele>
        <time>2021-03-24T09:39:08Z</time>
      </trkpt>
      <trkpt lat="45.77185" lon="4.64755">
        <ele>499.54</ele>
        <time>2021-03-24T09:39:12Z</time>
      </trkpt>
      <trkpt lat="45.7716" lon="4.64748">
        <ele>497.14</ele>
        <time>2021-03-24T09:39:16Z</time>
      </trkpt>
      <trkpt lat="45.77132" lon="4.64729">
        <ele>492.81</ele>
        <time>2021-03-24T09:39:21Z</time>
      </trkpt>
      <trkpt lat="45.77128" lon="4.64727">
        <ele>492.81</ele>
        <time>2021-03-24T09:39:22Z</time>
      </trkpt>
      <trkpt lat="45.77106" lon="4.64737">
        <ele>491.85</ele>
        <time>2021-03-24T09:39:31Z</time>
      </trkpt>
      <trkpt lat="45.77092" lon="4.64763">
        <ele>495.22</ele>
        <time>2021-03-24T09:39:44Z</time>
      </trkpt>
      <trkpt lat="45.77084" lon="4.64787">
        <ele>498.1</ele>
        <time>2021-03-24T09:39:55Z</time>
      </trkpt>
      <trkpt lat="45.77082" lon="4.64805">
        <ele>499.06</ele>
        <time>2021-03-24T09:39:59Z</time>
      </trkpt>
      <trkpt lat="45.77073" lon="4.64858">
        <ele>500.98</ele>
        <time>2021-03-24T09:40:13Z</time>
      </trkpt>
      <trkpt lat="45.77069" lon="4.64878">
        <ele>500.98</ele>
        <time>2021-03-24T09:40:17Z</time>
      </trkpt>
      <trkpt lat="45.7706" lon="4.64913">
        <ele>500.98</ele>
        <time>2021-03-24T09:40:23Z</time>
      </trkpt>
      <trkpt lat="45.77051" lon="4.64937">
        <ele>500.98</ele>
        <time>2021-03-24T09:40:27Z</time>
      </trkpt>
      <trkpt lat="45.77029" lon="4.64975">
        <ele>500.5</ele>
        <time>2021-03-24T09:40:34Z</time>
      </trkpt>
      <trkpt lat="45.77015" lon="4.64985">
        <ele>500.02</ele>
        <time>2021-03-24T09:40:38Z</time>
      </trkpt>
      <trkpt lat="45.77012" lon="4.64985">
        <ele>499.54</ele>
        <time>2021-03-24T09:40:39Z</time>
      </trkpt>
      <trkpt lat="45.77009" lon="4.64985">
        <ele>499.54</ele>
        <time>2021-03-24T09:40:40Z</time>
      </trkpt>
      <trkpt lat="45.77006" lon="4.64986">
        <ele>499.54</ele>
        <time>2021-03-24T09:40:41Z</time>
      </trkpt>
      <trkpt lat="45.77002" lon="4.64988">
        <ele>499.54</ele>
        <time>2021-03-24T09:40:42Z</time>
      </trkpt>
      <trkpt lat="45.7699" lon="4.64992">
        <ele>499.54</ele>
        <time>2021-03-24T09:40:44Z</time>
      </trkpt>
      <trkpt lat="45.76978" lon="4.64994">
        <ele>499.54</ele>
        <time>2021-03-24T09:40:46Z</time>
      </trkpt>
      <trkpt lat="45.76964" lon="4.64992">
        <ele>499.54</ele>
        <time>2021-03-24T09:40:48Z</time>
      </trkpt>
      <trkpt lat="45.76957" lon="4.64989">
        <ele>499.06</ele>
        <time>2021-03-24T09:40:49Z</time>
      </trkpt>
      <trkpt lat="45.76951" lon="4.64986">
        <ele>499.06</ele>
        <time>2021-03-24T09:40:50Z</time>
      </trkpt>
      <trkpt lat="45.76945" lon="4.64982">
        <ele>499.06</ele>
        <time>2021-03-24T09:40:51Z</time>
      </trkpt>
      <trkpt lat="45.76939" lon="4.64979">
        <ele>499.06</ele>
        <time>2021-03-24T09:40:52Z</time>
      </trkpt>
      <trkpt lat="45.76933" lon="4.64976">
        <ele>498.58</ele>
        <time>2021-03-24T09:40:53Z</time>
      </trkpt>
      <trkpt lat="45.76925" lon="4.64973">
        <ele>498.58</ele>
        <time>2021-03-24T09:40:54Z</time>
      </trkpt>
      <trkpt lat="45.76904" lon="4.6497">
        <ele>496.18</ele>
        <time>2021-03-24T09:40:57Z</time>
      </trkpt>
      <trkpt lat="45.76896" lon="4.64975">
        <ele>495.22</ele>
        <time>2021-03-24T09:40:58Z</time>
      </trkpt>
      <trkpt lat="45.76889" lon="4.6498">
        <ele>494.74</ele>
        <time>2021-03-24T09:40:59Z</time>
      </trkpt>
      <trkpt lat="45.76877" lon="4.6499">
        <ele>492.81</ele>
        <time>2021-03-24T09:41:01Z</time>
      </trkpt>
      <trkpt lat="45.76872" lon="4.64999">
        <ele>491.85</ele>
        <time>2021-03-24T09:41:02Z</time>
      </trkpt>
      <trkpt lat="45.76859" lon="4.65017">
        <ele>488.97</ele>
        <time>2021-03-24T09:41:04Z</time>
      </trkpt>
      <trkpt lat="45.76852" lon="4.65025">
        <ele>487.53</ele>
        <time>2021-03-24T09:41:05Z</time>
      </trkpt>
      <trkpt lat="45.76844" lon="4.65033">
        <ele>485.6</ele>
        <time>2021-03-24T09:41:06Z</time>
      </trkpt>
      <trkpt lat="45.7683" lon="4.65046">
        <ele>482.72</ele>
        <time>2021-03-24T09:41:08Z</time>
      </trkpt>
      <trkpt lat="45.76823" lon="4.6505">
        <ele>481.28</ele>
        <time>2021-03-24T09:41:09Z</time>
      </trkpt>
      <trkpt lat="45.76816" lon="4.65054">
        <ele>479.84</ele>
        <time>2021-03-24T09:41:10Z</time>
      </trkpt>
      <trkpt lat="45.76809" lon="4.65057">
        <ele>478.39</ele>
        <time>2021-03-24T09:41:11Z</time>
      </trkpt>
      <trkpt lat="45.76802" lon="4.65059">
        <ele>476.95</ele>
        <time>2021-03-24T09:41:12Z</time>
      </trkpt>
      <trkpt lat="45.76794" lon="4.65058">
        <ele>475.03</ele>
        <time>2021-03-24T09:41:13Z</time>
      </trkpt>
      <trkpt lat="45.76786" lon="4.65056">
        <ele>473.59</ele>
        <time>2021-03-24T09:41:14Z</time>
      </trkpt>
      <trkpt lat="45.76777" lon="4.65052">
        <ele>473.11</ele>
        <time>2021-03-24T09:41:15Z</time>
      </trkpt>
      <trkpt lat="45.7677" lon="4.65048">
        <ele>472.63</ele>
        <time>2021-03-24T09:41:16Z</time>
      </trkpt>
      <trkpt lat="45.76763" lon="4.65046">
        <ele>472.14</ele>
        <time>2021-03-24T09:41:17Z</time>
      </trkpt>
      <trkpt lat="45.76736" lon="4.6504">
        <ele>470.7</ele>
        <time>2021-03-24T09:41:21Z</time>
      </trkpt>
      <trkpt lat="45.7673" lon="4.65038">
        <ele>470.22</ele>
        <time>2021-03-24T09:41:22Z</time>
      </trkpt>
      <trkpt lat="45.76724" lon="4.65037">
        <ele>470.22</ele>
        <time>2021-03-24T09:41:23Z</time>
      </trkpt>
      <trkpt lat="45.76719" lon="4.65041">
        <ele>469.74</ele>
        <time>2021-03-24T09:41:24Z</time>
      </trkpt>
      <trkpt lat="45.76715" lon="4.65048">
        <ele>469.74</ele>
        <time>2021-03-24T09:41:25Z</time>
      </trkpt>
      <trkpt lat="45.76713" lon="4.65055">
        <ele>469.74</ele>
        <time>2021-03-24T09:41:26Z</time>
      </trkpt>
      <trkpt lat="45.76712" lon="4.65061">
        <ele>469.74</ele>
        <time>2021-03-24T09:41:27Z</time>
      </trkpt>
      <trkpt lat="45.76711" lon="4.65071">
        <ele>469.74</ele>
        <time>2021-03-24T09:41:29Z</time>
      </trkpt>
      <trkpt lat="45.7671" lon="4.65074">
        <ele>469.74</ele>
        <time>2021-03-24T09:41:30Z</time>
      </trkpt>
      <trkpt lat="45.76703" lon="4.65099">
        <ele>472.63</ele>
        <time>2021-03-24T09:41:41Z</time>
      </trkpt>
      <trkpt lat="45.76699" lon="4.65122">
        <ele>475.03</ele>
        <time>2021-03-24T09:41:49Z</time>
      </trkpt>
      <trkpt lat="45.76669" lon="4.65163">
        <ele>480.2</ele>
      </trkpt>
      <trkpt lat="45.76669" lon="4.65163">
        <ele>480.2</ele>
      </trkpt>
      <trkpt lat="45.76673" lon="4.65305">
        <ele>476.3</ele>
      </trkpt>
      <trkpt lat="45.76673" lon="4.65305">
        <ele>476.3</ele>
      </trkpt>
      <trkpt lat="45.76674" lon="4.65333">
        <ele>475.7</ele>
      </trkpt>
      <trkpt lat="45.76674" lon="4.65333">
        <ele>475.7</ele>
      </trkpt>
      <trkpt lat="45.76639" lon="4.65482">
        <ele>470</ele>
      </trkpt>
      <trkpt lat="45.76639" lon="4.65482">
        <ele>470</ele>
      </trkpt>
      <trkpt lat="45.76608" lon="4.65532">
        <ele>469</ele>
      </trkpt>
      <trkpt lat="45.76608" lon="4.65532">
        <ele>469</ele>
      </trkpt>
      <trkpt lat="45.76556" lon="4.65604">
        <ele>468.5</ele>
      </trkpt>
      <trkpt lat="45.76556" lon="4.65604">
        <ele>468.5</ele>
      </trkpt>
      <trkpt lat="45.76498" lon="4.65731">
        <ele>462.4</ele>
      </trkpt>
      <trkpt lat="45.76498" lon="4.65731">
        <ele>462.4</ele>
      </trkpt>
      <trkpt lat="45.76466" lon="4.65799">
        <ele>454.1</ele>
      </trkpt>
      <trkpt lat="45.76466" lon="4.65799">
        <ele>454.1</ele>
      </trkpt>
      <trkpt lat="45.7641" lon="4.65866">
        <ele>443.3</ele>
      </trkpt>
      <trkpt lat="45.7641" lon="4.65866">
        <ele>443.3</ele>
      </trkpt>
      <trkpt lat="45.76343" lon="4.65955">
        <ele>431.3</ele>
      </trkpt>
      <trkpt lat="45.76343" lon="4.65955">
        <ele>431.3</ele>
      </trkpt>
      <trkpt lat="45.76324" lon="4.65976">
        <ele>428</ele>
      </trkpt>
      <trkpt lat="45.76324" lon="4.65976">
        <ele>428</ele>
      </trkpt>
      <trkpt lat="45.76317" lon="4.65979">
        <ele>427.1</ele>
      </trkpt>
      <trkpt lat="45.76317" lon="4.65979">
        <ele>427.1</ele>
      </trkpt>
      <trkpt lat="45.76281" lon="4.65935">
        <ele>425.6</ele>
      </trkpt>
      <trkpt lat="45.76281" lon="4.65935">
        <ele>425.6</ele>
      </trkpt>
      <trkpt lat="45.76257" lon="4.65876">
        <ele>424.9</ele>
      </trkpt>
      <trkpt lat="45.76257" lon="4.65876">
        <ele>424.9</ele>
      </trkpt>
      <trkpt lat="45.7622" lon="4.65782">
        <ele>423.4</ele>
      </trkpt>
      <trkpt lat="45.7622" lon="4.65782">
        <ele>423.4</ele>
      </trkpt>
      <trkpt lat="45.76207" lon="4.65767">
        <ele>422.1</ele>
      </trkpt>
      <trkpt lat="45.76207" lon="4.65767">
        <ele>422.1</ele>
      </trkpt>
    </trkseg>
  </trk>
</gpx>